UKLR/RWN METAR and TAF weather

Enter ICAO airport designator
Station Type Date Time Source
UKLR METAR 2019/02/20 15:00 UTC NOAA

UKLR 201500Z 27007MPS 9999 SCT033CB 05/01 Q1014 R29/190060 NOSIG


Station Type Date Time Source
UKLR Decoded METAR 2019/02/20 15:00 UTC NOAA

Rivne, Ukraine (UKLR) 50-35N 026-08E
Feb 20, 2019 - 10:00 AM EST / 2019.02.20 1500 UTC
Wind: from the W (270 degrees) at 16 MPH (14 KT):0
Visibility: greater than 7 mile(s):0
Sky conditions: partly cloudy
Weather: Cumulonimbus clouds observed
Temperature: 41 F (5 C)
Dew Point: 33 F (1 C)
Relative Humidity: 75%
Pressure (altimeter): 29.94 in. Hg (1014 hPa)
ob: UKLR 201500Z 27007MPS 9999 SCT033CB 05/01 Q1014 R29/190060 NOSIG
cycle: 15

Station Type Date Time Source
UKLR TAF 2019/01/25 06:18 UTC NOAA

TAF TAF UKLR 250512Z 2506/2615 09007G12MPS 9999 BKN010
TEMPO 2606/2615 12009G14MPS 2100 -SN BLSN BKN005


Example: see airport list